sensor_id;sensor_type;location;lat;lon;timestamp;pressure;altitude;pressure_sealevel;temperature;humidity
9774;BME280;4926;42.670;23.316;2023-02-28T00:00:27;94992.09;;;6.78;100.00
9774;BME280;4926;42.670;23.316;2023-02-28T00:02:54;94977.22;;;6.72;100.00
9774;BME280;4926;42.670;23.316;2023-02-28T00:05:22;94983.34;;;6.78;100.00
9774;BME280;4926;42.670;23.316;2023-02-28T00:07:49;94992.88;;;6.79;100.00
9774;BME280;4926;42.670;23.316;2023-02-28T00:10:17;94979.66;;;6.79;100.00
9774;BME280;4926;42.670;23.316;2023-02-28T00:12:50;94971.91;;;7.04;100.00
9774;BME280;4926;42.670;23.316;2023-02-28T00:15:17;94993.50;;;6.91;100.00
9774;BME280;4926;42.670;23.316;2023-02-28T00:17:44;94983.16;;;6.90;100.00
9774;BME280;4926;42.670;23.316;2023-02-28T00:20:12;94987.28;;;7.07;100.00
9774;BME280;4926;42.670;23.316;2023-02-28T00:22:41;94995.25;;;6.80;100.00
9774;BME280;4926;42.670;23.316;2023-02-28T00:25:13;95002.53;;;6.95;100.00
9774;BME280;4926;42.670;23.316;2023-02-28T00:27:41;94992.88;;;7.16;100.00
9774;BME280;4926;42.670;23.316;2023-02-28T00:30:11;95005.00;;;7.43;100.00
9774;BME280;4926;42.670;23.316;2023-02-28T00:32:38;94994.47;;;7.53;100.00
9774;BME280;4926;42.670;23.316;2023-02-28T00:35:07;94999.06;;;7.68;100.00
9774;BME280;4926;42.670;23.316;2023-02-28T00:37:34;94992.19;;;7.82;100.00
9774;BME280;4926;42.670;23.316;2023-02-28T00:40:01;95006.28;;;7.87;100.00
9774;BME280;4926;42.670;23.316;2023-02-28T00:42:32;95006.25;;;7.77;100.00
9774;BME280;4926;42.670;23.316;2023-02-28T00:45:02;94998.84;;;7.79;100.00
9774;BME280;4926;42.670;23.316;2023-02-28T00:47:31;94990.88;;;7.79;100.00
9774;BME280;4926;42.670;23.316;2023-02-28T00:49:58;94989.47;;;7.62;100.00
9774;BME280;4926;42.670;23.316;2023-02-28T00:52:27;94990.13;;;7.37;100.00
9774;BME280;4926;42.670;23.316;2023-02-28T00:54:57;94992.75;;;7.32;100.00
9774;BME280;4926;42.670;23.316;2023-02-28T00:57:26;94994.44;;;7.48;100.00
9774;BME280;4926;42.670;23.316;2023-02-28T00:59:52;94981.97;;;7.49;100.00
9774;BME280;4926;42.670;23.316;2023-02-28T01:02:20;95000.44;;;7.34;100.00
9774;BME280;4926;42.670;23.316;2023-02-28T01:04:49;94986.50;;;7.48;100.00
9774;BME280;4926;42.670;23.316;2023-02-28T01:07:15;94994.97;;;7.50;100.00
9774;BME280;4926;42.670;23.316;2023-02-28T01:09:42;94987.56;;;7.52;100.00
9774;BME280;4926;42.670;23.316;2023-02-28T01:12:09;94991.31;;;7.61;100.00
9774;BME280;4926;42.670;23.316;2023-02-28T01:14:38;94987.06;;;7.55;100.00
9774;BME280;4926;42.670;23.316;2023-02-28T01:17:04;94985.97;;;7.51;100.00
9774;BME280;4926;42.670;23.316;2023-02-28T01:19:31;94976.72;;;7.54;100.00
9774;BME280;4926;42.670;23.316;2023-02-28T01:22:02;94985.53;;;7.64;100.00
9774;BME280;4926;42.670;23.316;2023-02-28T01:24:31;94985.44;;;7.54;100.00
9774;BME280;4926;42.670;23.316;2023-02-28T01:27:00;94981.63;;;7.35;100.00
9774;BME280;4926;42.670;23.316;2023-02-28T01:29:27;94978.16;;;7.30;100.00
9774;BME280;4926;42.670;23.316;2023-02-28T01:31:56;94984.56;;;7.39;100.00
9774;BME280;4926;42.670;23.316;2023-02-28T01:34:25;94976.38;;;7.45;100.00
9774;BME280;4926;42.670;23.316;2023-02-28T01:36:52;94987.56;;;7.52;100.00
9774;BME280;4926;42.670;23.316;2023-02-28T01:39:20;94984.69;;;7.54;100.00
9774;BME280;4926;42.670;23.316;2023-02-28T01:41:47;94997.09;;;7.48;100.00
9774;BME280;4926;42.670;23.316;2023-02-28T01:47:17;94988.53;;;7.36;100.00
9774;BME280;4926;42.670;23.316;2023-02-28T01:49:44;94992.28;;;7.45;100.00
9774;BME280;4926;42.670;23.316;2023-02-28T01:52:15;94997.00;;;7.38;100.00
9774;BME280;4926;42.670;23.316;2023-02-28T01:54:51;94993.31;;;7.39;100.00
9774;BME280;4926;42.670;23.316;2023-02-28T01:57:24;94998.09;;;7.42;100.00
9774;BME280;4926;42.670;23.316;2023-02-28T01:59:54;95000.78;;;7.47;100.00
9774;BME280;4926;42.670;23.316;2023-02-28T02:02:28;94999.22;;;7.51;100.00
9774;BME280;4926;42.670;23.316;2023-02-28T02:05:03;94992.34;;;7.55;100.00
9774;BME280;4926;42.670;23.316;2023-02-28T02:07:36;95000.34;;;7.65;100.00
9774;BME280;4926;42.670;23.316;2023-02-28T02:10:11;94992.97;;;7.72;100.00
9774;BME280;4926;42.670;23.316;2023-02-28T02:13:08;94991.16;;;7.78;100.00
9774;BME280;4926;42.670;23.316;2023-02-28T02:15:41;94990.06;;;7.79;100.00
9774;BME280;4926;42.670;23.316;2023-02-28T02:18:17;94984.75;;;7.74;100.00
9774;BME280;4926;42.670;23.316;2023-02-28T02:27:46;94979.75;;;7.82;100.00
9774;BME280;4926;42.670;23.316;2023-02-28T02:33:46;94986.59;;;7.68;100.00
9774;BME280;4926;42.670;23.316;2023-02-28T02:36:23;94983.34;;;7.56;100.00
9774;BME280;4926;42.670;23.316;2023-02-28T02:38:55;94983.75;;;7.38;100.00
9774;BME280;4926;42.670;23.316;2023-02-28T02:41:33;94990.97;;;7.43;100.00
9774;BME280;4926;42.670;23.316;2023-02-28T02:44:04;94989.41;;;7.47;100.00
9774;BME280;4926;42.670;23.316;2023-02-28T02:46:34;94994.50;;;7.63;100.00
9774;BME280;4926;42.670;23.316;2023-02-28T02:49:13;94995.56;;;7.57;100.00
9774;BME280;4926;42.670;23.316;2023-02-28T02:51:45;95002.19;;;7.65;100.00
9774;BME280;4926;42.670;23.316;2023-02-28T02:54:20;94995.06;;;7.65;100.00
9774;BME280;4926;42.670;23.316;2023-02-28T02:56:51;95002.22;;;7.70;100.00
9774;BME280;4926;42.670;23.316;2023-02-28T02:59:20;95004.66;;;7.76;100.00
9774;BME280;4926;42.670;23.316;2023-02-28T03:01:50;95007.03;;;7.78;100.00
9774;BME280;4926;42.670;23.316;2023-02-28T03:04:20;95005.41;;;7.72;100.00
9774;BME280;4926;42.670;23.316;2023-02-28T03:06:50;95014.44;;;7.71;100.00
9774;BME280;4926;42.670;23.316;2023-02-28T03:09:20;95021.84;;;7.74;100.00
9774;BME280;4926;42.670;23.316;2023-02-28T03:11:47;95019.22;;;7.79;100.00
9774;BME280;4926;42.670;23.316;2023-02-28T03:14:25;95025.34;;;7.79;100.00
9774;BME280;4926;42.670;23.316;2023-02-28T03:17:08;95041.44;;;7.68;100.00
9774;BME280;4926;42.670;23.316;2023-02-28T03:19:55;95030.03;;;7.62;100.00
9774;BME280;4926;42.670;23.316;2023-02-28T03:22:39;95034.84;;;7.75;100.00
9774;BME280;4926;42.670;23.316;2023-02-28T03:25:23;95033.69;;;7.56;100.00
9774;BME280;4926;42.670;23.316;2023-02-28T03:28:00;95033.06;;;7.44;100.00
9774;BME280;4926;42.670;23.316;2023-02-28T03:30:35;95041.03;;;7.44;100.00
9774;BME280;4926;42.670;23.316;2023-02-28T03:33:07;95048.75;;;7.51;100.00
9774;BME280;4926;42.670;23.316;2023-02-28T03:35:38;95054.09;;;7.24;100.00
9774;BME280;4926;42.670;23.316;2023-02-28T03:38:11;95049.31;;;6.90;100.00
9774;BME280;4926;42.670;23.316;2023-02-28T03:40:44;95050.47;;;6.99;100.00
9774;BME280;4926;42.670;23.316;2023-02-28T03:43:19;95050.84;;;7.12;100.00
9774;BME280;4926;42.670;23.316;2023-02-28T03:45:47;95055.31;;;7.07;100.00
9774;BME280;4926;42.670;23.316;2023-02-28T03:48:20;95050.69;;;6.92;100.00
9774;BME280;4926;42.670;23.316;2023-02-28T03:50:51;95026.50;;;6.78;100.00
9774;BME280;4926;42.670;23.316;2023-02-28T03:53:39;95061.34;;;7.02;100.00
9774;BME280;4926;42.670;23.316;2023-02-28T03:56:11;95058.84;;;7.17;100.00
9774;BME280;4926;42.670;23.316;2023-02-28T03:58:47;95065.44;;;7.15;100.00
9774;BME280;4926;42.670;23.316;2023-02-28T04:01:18;95071.00;;;7.18;100.00
9774;BME280;4926;42.670;23.316;2023-02-28T04:03:47;95060.94;;;7.15;100.00
9774;BME280;4926;42.670;23.316;2023-02-28T04:06:16;95066.00;;;7.22;100.00
9774;BME280;4926;42.670;23.316;2023-02-28T04:08:49;95060.22;;;7.25;100.00
9774;BME280;4926;42.670;23.316;2023-02-28T04:11:21;95065.28;;;7.31;100.00
9774;BME280;4926;42.670;23.316;2023-02-28T04:13:48;95061.59;;;7.32;100.00
9774;BME280;4926;42.670;23.316;2023-02-28T04:16:15;95059.50;;;7.34;100.00
9774;BME280;4926;42.670;23.316;2023-02-28T04:18:42;95045.72;;;7.32;100.00
9774;BME280;4926;42.670;23.316;2023-02-28T04:21:10;95054.31;;;7.18;100.00
9774;BME280;4926;42.670;23.316;2023-02-28T04:23:39;95054.53;;;7.11;100.00
9774;BME280;4926;42.670;23.316;2023-02-28T04:26:07;95047.84;;;7.04;100.00
9774;BME280;4926;42.670;23.316;2023-02-28T04:28:36;95053.97;;;7.04;100.00
9774;BME280;4926;42.670;23.316;2023-02-28T04:31:04;95061.31;;;6.97;100.00
9774;BME280;4926;42.670;23.316;2023-02-28T04:33:33;95060.00;;;6.68;100.00
9774;BME280;4926;42.670;23.316;2023-02-28T04:36:01;95060.56;;;6.48;100.00
9774;BME280;4926;42.670;23.316;2023-02-28T04:38:29;95059.09;;;6.57;100.00
9774;BME280;4926;42.670;23.316;2023-02-28T04:40:57;95074.25;;;6.67;100.00
9774;BME280;4926;42.670;23.316;2023-02-28T04:43:27;95067.88;;;6.63;100.00
9774;BME280;4926;42.670;23.316;2023-02-28T04:45:54;95072.13;;;6.42;100.00
9774;BME280;4926;42.670;23.316;2023-02-28T04:48:23;95073.94;;;5.94;100.00
9774;BME280;4926;42.670;23.316;2023-02-28T04:50:51;95080.22;;;5.88;100.00
9774;BME280;4926;42.670;23.316;2023-02-28T04:53:18;95081.00;;;5.88;100.00
9774;BME280;4926;42.670;23.316;2023-02-28T04:55:45;95092.66;;;6.09;100.00
9774;BME280;4926;42.670;23.316;2023-02-28T04:58:13;95086.97;;;6.22;100.00
9774;BME280;4926;42.670;23.316;2023-02-28T05:00:41;95086.78;;;6.28;100.00
9774;BME280;4926;42.670;23.316;2023-02-28T05:03:08;95085.41;;;6.47;100.00
9774;BME280;4926;42.670;23.316;2023-02-28T05:05:35;95090.63;;;6.42;100.00
9774;BME280;4926;42.670;23.316;2023-02-28T05:08:07;95085.84;;;6.61;100.00
9774;BME280;4926;42.670;23.316;2023-02-28T05:10:38;95085.78;;;6.56;100.00
9774;BME280;4926;42.670;23.316;2023-02-28T05:13:05;95084.69;;;6.52;100.00
9774;BME280;4926;42.670;23.316;2023-02-28T05:15:35;95098.50;;;6.59;100.00
9774;BME280;4926;42.670;23.316;2023-02-28T05:18:03;95087.97;;;6.64;100.00
9774;BME280;4926;42.670;23.316;2023-02-28T05:20:33;95093.38;;;6.74;100.00
9774;BME280;4926;42.670;23.316;2023-02-28T05:23:03;95090.41;;;6.70;100.00
9774;BME280;4926;42.670;23.316;2023-02-28T05:25:29;95098.81;;;6.89;100.00
9774;BME280;4926;42.670;23.316;2023-02-28T05:28:05;95103.16;;;7.00;100.00
9774;BME280;4926;42.670;23.316;2023-02-28T05:30:33;95103.47;;;7.09;100.00
9774;BME280;4926;42.670;23.316;2023-02-28T05:33:00;95112.53;;;6.86;100.00
9774;BME280;4926;42.670;23.316;2023-02-28T05:35:30;95121.28;;;6.87;100.00
9774;BME280;4926;42.670;23.316;2023-02-28T05:37:57;95115.63;;;6.78;100.00
9774;BME280;4926;42.670;23.316;2023-02-28T05:40:26;95120.59;;;6.96;100.00
9774;BME280;4926;42.670;23.316;2023-02-28T05:42:55;95112.50;;;7.08;100.00
9774;BME280;4926;42.670;23.316;2023-02-28T05:45:23;95118.59;;;7.08;100.00
9774;BME280;4926;42.670;23.316;2023-02-28T05:47:53;95119.06;;;7.05;100.00
9774;BME280;4926;42.670;23.316;2023-02-28T05:50:23;95119.63;;;7.07;100.00
9774;BME280;4926;42.670;23.316;2023-02-28T05:52:52;95125.69;;;7.03;100.00
9774;BME280;4926;42.670;23.316;2023-02-28T05:55:18;95130.66;;;6.99;100.00
9774;BME280;4926;42.670;23.316;2023-02-28T05:57:45;95132.06;;;7.07;100.00
9774;BME280;4926;42.670;23.316;2023-02-28T06:00:13;95139.81;;;7.13;100.00
9774;BME280;4926;42.670;23.316;2023-02-28T06:02:43;95136.25;;;7.29;100.00
9774;BME280;4926;42.670;23.316;2023-02-28T06:05:13;95132.31;;;7.37;100.00
9774;BME280;4926;42.670;23.316;2023-02-28T06:07:41;95124.59;;;7.30;100.00
9774;BME280;4926;42.670;23.316;2023-02-28T06:10:10;95126.19;;;7.31;100.00
9774;BME280;4926;42.670;23.316;2023-02-28T06:12:40;95118.50;;;7.30;100.00
9774;BME280;4926;42.670;23.316;2023-02-28T06:15:12;95124.78;;;7.19;100.00
9774;BME280;4926;42.670;23.316;2023-02-28T06:17:39;95123.47;;;7.21;100.00
9774;BME280;4926;42.670;23.316;2023-02-28T06:20:07;95124.38;;;7.05;100.00
9774;BME280;4926;42.670;23.316;2023-02-28T06:22:34;95130.19;;;6.80;100.00
9774;BME280;4926;42.670;23.316;2023-02-28T06:25:01;95116.56;;;6.67;100.00
9774;BME280;4926;42.670;23.316;2023-02-28T06:27:30;95123.56;;;6.78;100.00
9774;BME280;4926;42.670;23.316;2023-02-28T06:29:57;95128.28;;;6.98;100.00
9774;BME280;4926;42.670;23.316;2023-02-28T06:32:28;95132.59;;;7.09;100.00
9774;BME280;4926;42.670;23.316;2023-02-28T06:34:55;95132.97;;;7.17;100.00
9774;BME280;4926;42.670;23.316;2023-02-28T06:37:23;95146.09;;;7.07;100.00
9774;BME280;4926;42.670;23.316;2023-02-28T06:39:54;95141.34;;;7.09;100.00
9774;BME280;4926;42.670;23.316;2023-02-28T06:42:21;95156.13;;;7.32;100.00
9774;BME280;4926;42.670;23.316;2023-02-28T06:44:51;95150.41;;;7.45;100.00
9774;BME280;4926;42.670;23.316;2023-02-28T06:47:20;95144.69;;;7.58;100.00
9774;BME280;4926;42.670;23.316;2023-02-28T06:49:47;95145.78;;;7.62;100.00
9774;BME280;4926;42.670;23.316;2023-02-28T06:52:14;95153.50;;;7.68;100.00
9774;BME280;4926;42.670;23.316;2023-02-28T06:54:41;95111.56;;;7.55;100.00
9774;BME280;4926;42.670;23.316;2023-02-28T06:57:10;95148.84;;;7.85;100.00
9774;BME280;4926;42.670;23.316;2023-02-28T06:59:37;95145.19;;;7.91;100.00
9774;BME280;4926;42.670;23.316;2023-02-28T07:02:05;95151.88;;;7.99;100.00
9774;BME280;4926;42.670;23.316;2023-02-28T07:04:32;95149.03;;;8.11;100.00
9774;BME280;4926;42.670;23.316;2023-02-28T07:07:02;95144.81;;;8.15;100.00
9774;BME280;4926;42.670;23.316;2023-02-28T07:09:30;95145.06;;;8.13;100.00
9774;BME280;4926;42.670;23.316;2023-02-28T07:11:57;95145.47;;;8.32;100.00
9774;BME280;4926;42.670;23.316;2023-02-28T07:14:25;95141.81;;;8.43;100.00
9774;BME280;4926;42.670;23.316;2023-02-28T07:16:52;95152.97;;;8.45;100.00
9774;BME280;4926;42.670;23.316;2023-02-28T07:19:21;95146.59;;;8.51;100.00
9774;BME280;4926;42.670;23.316;2023-02-28T07:21:47;95142.31;;;8.40;100.00
9774;BME280;4926;42.670;23.316;2023-02-28T07:24:14;95143.94;;;8.51;100.00
9774;BME280;4926;42.670;23.316;2023-02-28T07:26:46;95143.69;;;8.52;100.00
9774;BME280;4926;42.670;23.316;2023-02-28T07:29:15;95154.09;;;8.59;100.00
9774;BME280;4926;42.670;23.316;2023-02-28T07:31:41;95150.91;;;8.67;100.00
9774;BME280;4926;42.670;23.316;2023-02-28T07:34:08;95156.78;;;8.69;100.00
9774;BME280;4926;42.670;23.316;2023-02-28T07:36:36;95154.13;;;8.74;100.00
9774;BME280;4926;42.670;23.316;2023-02-28T07:39:06;95155.72;;;8.75;100.00
9774;BME280;4926;42.670;23.316;2023-02-28T07:41:48;95154.13;;;8.74;100.00
9774;BME280;4926;42.670;23.316;2023-02-28T07:44:15;95154.88;;;8.64;100.00
9774;BME280;4926;42.670;23.316;2023-02-28T07:46:42;95156.22;;;8.62;100.00
9774;BME280;4926;42.670;23.316;2023-02-28T07:49:09;95151.72;;;8.62;100.00
9774;BME280;4926;42.670;23.316;2023-02-28T07:51:40;95151.47;;;8.74;100.00
9774;BME280;4926;42.670;23.316;2023-02-28T07:54:07;95145.09;;;8.80;100.00
9774;BME280;4926;42.670;23.316;2023-02-28T07:56:34;95140.88;;;8.84;100.00
9774;BME280;4926;42.670;23.316;2023-02-28T07:59:00;95148.88;;;8.94;100.00
9774;BME280;4926;42.670;23.316;2023-02-28T08:01:29;95146.00;;;9.00;100.00
9774;BME280;4926;42.670;23.316;2023-02-28T08:03:55;95146.28;;;9.09;100.00
9774;BME280;4926;42.670;23.316;2023-02-28T08:06:23;95142.53;;;9.10;100.00
9774;BME280;4926;42.670;23.316;2023-02-28T08:08:53;95141.22;;;9.08;100.00
9774;BME280;4926;42.670;23.316;2023-02-28T08:11:21;95148.41;;;9.17;100.00
9774;BME280;4926;42.670;23.316;2023-02-28T08:13:48;95143.63;;;9.19;100.00
9774;BME280;4926;42.670;23.316;2023-02-28T08:16:17;95147.91;;;9.30;100.00
9774;BME280;4926;42.670;23.316;2023-02-28T08:18:47;95148.97;;;9.44;100.00
9774;BME280;4926;42.670;23.316;2023-02-28T08:21:14;95138.63;;;9.48;100.00
9774;BME280;4926;42.670;23.316;2023-02-28T08:23:41;95148.97;;;9.64;100.00
9774;BME280;4926;42.670;23.316;2023-02-28T08:26:09;95146.84;;;9.61;100.00
9774;BME280;4926;42.670;23.316;2023-02-28T08:28:36;95159.06;;;9.57;100.00
9774;BME280;4926;42.670;23.316;2023-02-28T08:31:07;95146.31;;;9.54;100.00
9774;BME280;4926;42.670;23.316;2023-02-28T08:33:37;95146.84;;;9.46;100.00
9774;BME280;4926;42.670;23.316;2023-02-28T08:36:07;95158.03;;;9.58;100.00
9774;BME280;4926;42.670;23.316;2023-02-28T08:38:34;95155.63;;;9.62;100.00
9774;BME280;4926;42.670;23.316;2023-02-28T08:41:09;95159.59;;;9.64;100.00
9774;BME280;4926;42.670;23.316;2023-02-28T08:43:36;95159.59;;;9.59;100.00
9774;BME280;4926;42.670;23.316;2023-02-28T08:46:04;95151.91;;;9.63;100.00
9774;BME280;4926;42.670;23.316;2023-02-28T08:48:33;95161.75;;;9.67;100.00
9774;BME280;4926;42.670;23.316;2023-02-28T08:51:03;95158.03;;;9.68;100.00
9774;BME280;4926;42.670;23.316;2023-02-28T08:53:40;95152.97;;;9.57;100.00
9774;BME280;4926;42.670;23.316;2023-02-28T08:56:10;95146.84;;;9.56;100.00
9774;BME280;4926;42.670;23.316;2023-02-28T08:58:37;95157.22;;;9.48;100.00
9774;BME280;4926;42.670;23.316;2023-02-28T09:01:11;95164.66;;;9.61;100.00
9774;BME280;4926;42.670;23.316;2023-02-28T09:03:38;95162.25;;;9.69;100.00
9774;BME280;4926;42.670;23.316;2023-02-28T09:06:06;95158.81;;;9.74;100.00
9774;BME280;4926;42.670;23.316;2023-02-28T09:08:36;95155.09;;;9.65;100.00
9774;BME280;4926;42.670;23.316;2023-02-28T09:11:10;95156.41;;;9.52;100.00
9774;BME280;4926;42.670;23.316;2023-02-28T09:13:38;95154.56;;;9.48;100.00
9774;BME280;4926;42.670;23.316;2023-02-28T09:16:07;95152.16;;;9.51;100.00
9774;BME280;4926;42.670;23.316;2023-02-28T09:18:34;95152.72;;;9.53;100.00
9774;BME280;4926;42.670;23.316;2023-02-28T09:21:04;95144.19;;;9.66;100.00
9774;BME280;4926;42.670;23.316;2023-02-28T09:23:33;95154.31;;;9.79;100.00
9774;BME280;4926;42.670;23.316;2023-02-28T09:26:00;95152.41;;;9.80;100.00
9774;BME280;4926;42.670;23.316;2023-02-28T09:28:28;95152.16;;;9.91;100.00
9774;BME280;4926;42.670;23.316;2023-02-28T09:30:55;95139.13;;;9.80;100.00
9774;BME280;4926;42.670;23.316;2023-02-28T09:33:24;95131.72;;;9.57;100.00
9774;BME280;4926;42.670;23.316;2023-02-28T09:35:52;95145.78;;;9.77;100.00
9774;BME280;4926;42.670;23.316;2023-02-28T09:38:23;95146.84;;;9.96;100.00
9774;BME280;4926;42.670;23.316;2023-02-28T09:40:51;95134.34;;;9.97;100.00
9774;BME280;4926;42.670;23.316;2023-02-28T09:43:33;95144.72;;;9.98;100.00
9774;BME280;4926;42.670;23.316;2023-02-28T09:46:06;95139.38;;;9.98;100.00
9774;BME280;4926;42.670;23.316;2023-02-28T09:48:39;95142.31;;;10.07;100.00
9774;BME280;4926;42.670;23.316;2023-02-28T09:51:14;95144.97;;;10.12;100.00
9774;BME280;4926;42.670;23.316;2023-02-28T09:53:42;95133.78;;;10.05;100.00
9774;BME280;4926;42.670;23.316;2023-02-28T09:56:17;95135.66;;;10.20;100.00
9774;BME280;4926;42.670;23.316;2023-02-28T09:58:57;95135.84;;;10.38;100.00
9774;BME280;4926;42.670;23.316;2023-02-28T10:01:32;95140.31;;;10.58;100.00
9774;BME280;4926;42.670;23.316;2023-02-28T10:04:09;95138.16;;;10.65;100.00
9774;BME280;4926;42.670;23.316;2023-02-28T10:06:44;95132.03;;;10.64;100.00
9774;BME280;4926;42.670;23.316;2023-02-28T10:09:16;95129.09;;;10.66;100.00
9774;BME280;4926;42.670;23.316;2023-02-28T10:11:46;95115.81;;;10.61;100.00
9774;BME280;4926;42.670;23.316;2023-02-28T10:14:16;95121.09;;;10.71;100.00
9774;BME280;4926;42.670;23.316;2023-02-28T10:16:46;95114.75;;;10.67;100.00
9774;BME280;4926;42.670;23.316;2023-02-28T10:19:20;95118.13;;;10.82;100.00
9774;BME280;4926;42.670;23.316;2023-02-28T10:21:56;95112.66;;;11.02;100.00
9774;BME280;4926;42.670;23.316;2023-02-28T10:24:37;95114.25;;;11.08;100.00
9774;BME280;4926;42.670;23.316;2023-02-28T10:27:13;95105.63;;;11.21;100.00
9774;BME280;4926;42.670;23.316;2023-02-28T10:29:43;95090.72;;;10.77;100.00
9774;BME280;4926;42.670;23.316;2023-02-28T10:32:13;95103.66;;;10.93;100.00
9774;BME280;4926;42.670;23.316;2023-02-28T10:34:42;95104.13;;;11.10;100.00
9774;BME280;4926;42.670;23.316;2023-02-28T10:37:09;95091.47;;;11.26;100.00
9774;BME280;4926;42.670;23.316;2023-02-28T10:39:38;95082.97;;;11.24;100.00
9774;BME280;4926;42.670;23.316;2023-02-28T10:42:27;95087.31;;;11.49;100.00
9774;BME280;4926;42.670;23.316;2023-02-28T10:45:16;95079.97;;;11.69;100.00
9774;BME280;4926;42.670;23.316;2023-02-28T10:47:55;95070.78;;;11.80;100.00
9774;BME280;4926;42.670;23.316;2023-02-28T10:50:32;95072.19;;;12.01;100.00
9774;BME280;4926;42.670;23.316;2023-02-28T10:53:22;95060.81;;;12.14;100.00
9774;BME280;4926;42.670;23.316;2023-02-28T10:55:56;95055.72;;;12.18;100.00
9774;BME280;4926;42.670;23.316;2023-02-28T10:58:26;95053.78;;;12.00;100.00
9774;BME280;4926;42.670;23.316;2023-02-28T11:00:54;95056.72;;;11.98;100.00
9774;BME280;4926;42.670;23.316;2023-02-28T11:03:24;95056.59;;;11.56;100.00
9774;BME280;4926;42.670;23.316;2023-02-28T11:05:51;95054.22;;;11.83;100.00
9774;BME280;4926;42.670;23.316;2023-02-28T11:08:18;95033.06;;;11.63;100.00
9774;BME280;4926;42.670;23.316;2023-02-28T11:10:48;95045.41;;;11.83;100.00
9774;BME280;4926;42.670;23.316;2023-02-28T11:13:21;95050.97;;;11.86;100.00
9774;BME280;4926;42.670;23.316;2023-02-28T11:15:56;95041.78;;;11.40;100.00
9774;BME280;4926;42.670;23.316;2023-02-28T11:18:27;95045.47;;;11.44;100.00
9774;BME280;4926;42.670;23.316;2023-02-28T11:20:58;95045.34;;;11.64;100.00
9774;BME280;4926;42.670;23.316;2023-02-28T11:23:27;95033.69;;;11.84;100.00
9774;BME280;4926;42.670;23.316;2023-02-28T11:25:58;95028.56;;;11.87;100.00
9774;BME280;4926;42.670;23.316;2023-02-28T11:28:36;95020.94;;;11.76;100.00
9774;BME280;4926;42.670;23.316;2023-02-28T11:31:14;95035.50;;;11.88;100.00
9774;BME280;4926;42.670;23.316;2023-02-28T11:33:43;95031.66;;;11.71;100.00
9774;BME280;4926;42.670;23.316;2023-02-28T11:36:12;95031.34;;;11.77;100.00
9774;BME280;4926;42.670;23.316;2023-02-28T11:38:40;95022.94;;;11.60;100.00
9774;BME280;4926;42.670;23.316;2023-02-28T11:41:20;95024.72;;;11.41;100.00
9774;BME280;4926;42.670;23.316;2023-02-28T11:44:23;95025.53;;;11.08;100.00
9774;BME280;4926;42.670;23.316;2023-02-28T11:46:58;95024.25;;;11.34;100.00
9774;BME280;4926;42.670;23.316;2023-02-28T11:49:33;95020.13;;;11.80;100.00
9774;BME280;4926;42.670;23.316;2023-02-28T11:52:10;95021.91;;;11.85;100.00
9774;BME280;4926;42.670;23.316;2023-02-28T11:54:54;95006.03;;;11.98;100.00
9774;BME280;4926;42.670;23.316;2023-02-28T11:57:34;95013.28;;;11.69;100.00
9774;BME280;4926;42.670;23.316;2023-02-28T12:00:25;95004.09;;;11.52;100.00
9774;BME280;4926;42.670;23.316;2023-02-28T12:03:06;94990.13;;;11.02;100.00
9774;BME280;4926;42.670;23.316;2023-02-28T12:05:42;95002.41;;;11.32;100.00
9774;BME280;4926;42.670;23.316;2023-02-28T12:08:22;95006.31;;;11.73;100.00
9774;BME280;4926;42.670;23.316;2023-02-28T12:11:01;95012.19;;;12.22;100.00
9774;BME280;4926;42.670;23.316;2023-02-28T12:13:40;95018.25;;;12.04;100.00
9774;BME280;4926;42.670;23.316;2023-02-28T12:16:24;95013.34;;;11.64;100.00
9774;BME280;4926;42.670;23.316;2023-02-28T12:19:05;95011.34;;;12.03;100.00
9774;BME280;4926;42.670;23.316;2023-02-28T12:21:44;95011.09;;;12.00;100.00
9774;BME280;4926;42.670;23.316;2023-02-28T12:24:27;95003.06;;;11.76;100.00
9774;BME280;4926;42.670;23.316;2023-02-28T12:27:00;95019.19;;;11.66;100.00
9774;BME280;4926;42.670;23.316;2023-02-28T12:29:30;95010.63;;;11.69;100.00
9774;BME280;4926;42.670;23.316;2023-02-28T12:32:03;94992.94;;;11.78;100.00
9774;BME280;4926;42.670;23.316;2023-02-28T12:34:36;95014.50;;;11.82;100.00
9774;BME280;4926;42.670;23.316;2023-02-28T12:37:07;95011.66;;;12.20;100.00
9774;BME280;4926;42.670;23.316;2023-02-28T12:39:39;95003.00;;;12.28;100.00
9774;BME280;4926;42.670;23.316;2023-02-28T12:42:11;95011.81;;;12.29;100.00
9774;BME280;4926;42.670;23.316;2023-02-28T12:44:44;95016.78;;;12.17;100.00
9774;BME280;4926;42.670;23.316;2023-02-28T12:47:15;95016.41;;;11.76;100.00
9774;BME280;4926;42.670;23.316;2023-02-28T12:49:47;95013.81;;;11.38;100.00
9774;BME280;4926;42.670;23.316;2023-02-28T12:52:28;95006.72;;;11.28;100.00
9774;BME280;4926;42.670;23.316;2023-02-28T12:55:01;95012.63;;;11.20;100.00
9774;BME280;4926;42.670;23.316;2023-02-28T12:57:34;95009.00;;;11.06;100.00
9774;BME280;4926;42.670;23.316;2023-02-28T13:00:11;94998.25;;;11.21;100.00
9774;BME280;4926;42.670;23.316;2023-02-28T13:06:05;95004.53;;;11.35;100.00
9774;BME280;4926;42.670;23.316;2023-02-28T13:09:01;94993.44;;;11.52;100.00
9774;BME280;4926;42.670;23.316;2023-02-28T13:11:30;94999.59;;;11.81;100.00
9774;BME280;4926;42.670;23.316;2023-02-28T13:13:59;95007.13;;;11.97;100.00
9774;BME280;4926;42.670;23.316;2023-02-28T13:16:27;95003.47;;;11.88;100.00
9774;BME280;4926;42.670;23.316;2023-02-28T13:19:09;94999.84;;;11.79;100.00
9774;BME280;4926;42.670;23.316;2023-02-28T13:21:43;95000.38;;;11.48;100.00
9774;BME280;4926;42.670;23.316;2023-02-28T13:24:11;95000.50;;;11.09;100.00
9774;BME280;4926;42.670;23.316;2023-02-28T13:29:57;94974.06;;;10.79;100.00
9774;BME280;4926;42.670;23.316;2023-02-28T13:32:43;94996.94;;;10.80;100.00
9774;BME280;4926;42.670;23.316;2023-02-28T13:35:43;94994.19;;;10.95;100.00
9774;BME280;4926;42.670;23.316;2023-02-28T13:38:40;94991.94;;;10.73;100.00
9774;BME280;4926;42.670;23.316;2023-02-28T13:41:45;94992.09;;;10.87;100.00
9774;BME280;4926;42.670;23.316;2023-02-28T13:44:15;94983.59;;;10.85;100.00
9774;BME280;4926;42.670;23.316;2023-02-28T13:49:47;94979.97;;;10.76;100.00
9774;BME280;4926;42.670;23.316;2023-02-28T13:52:19;94975.03;;;10.93;100.00